Time;durP1;ratioP1;P1;durP2;ratioP2;P2;SDS_P1;SDS_P2;PMS_P1;PMS_P2;Temp;Humidity;BMP_temperature;BMP_pressure;BME280_temperature;BME280_humidity;BME280_pressure;Samples;Min_cycle;Max_cycle;Signal;HPM_P1;HPM_P2
2023/05/28 00:00:13;;;;;;;16.08;8.80;;;;;;;13.24;100.00;101857.59;5267501;28;20052;-64
2023/05/28 00:02:44;;;;;;;15.23;8.60;;;;;;;13.20;100.00;101859.66;5268500;28;20028;-64
2023/05/28 00:05:16;;;;;;;16.67;9.07;;;;;;;13.24;100.00;101860.28;5269846;28;20348;-65
2023/05/28 00:07:47;;;;;;;15.75;8.45;;;;;;;13.13;100.00;101867.28;5276644;28;20028;-64
2023/05/28 00:10:18;;;;;;;15.13;9.25;;;;;;;13.17;100.00;101862.53;5263184;28;20140;-64
2023/05/28 00:12:50;;;;;;;15.52;9.70;;;;;;;13.04;100.00;101861.69;5269913;28;20158;-64
2023/05/28 00:15:21;;;;;;;16.08;8.48;;;;;;;12.94;100.00;101858.81;5270572;28;20378;-65
2023/05/28 00:17:53;;;;;;;16.13;9.27;;;;;;;12.90;100.00;101852.81;5263703;28;20567;-65
2023/05/28 00:20:25;;;;;;;18.75;9.52;;;;;;;12.82;100.00;101847.13;5266938;28;20037;-65
2023/05/28 00:22:56;;;;;;;19.15;9.18;;;;;;;12.79;100.00;101846.50;5265901;28;20028;-64
2023/05/28 00:25:28;;;;;;;16.13;9.13;;;;;;;12.72;100.00;101848.75;5261814;28;20391;-64
2023/05/28 00:27:59;;;;;;;19.42;9.73;;;;;;;12.66;100.00;101854.53;5257987;28;20032;-64
2023/05/28 00:30:30;;;;;;;16.05;9.85;;;;;;;12.71;100.00;101847.91;5259567;28;20038;-64
2023/05/28 00:33:02;;;;;;;16.83;9.48;;;;;;;12.53;100.00;101849.16;5269906;28;20028;-64
2023/05/28 00:35:33;;;;;;;14.70;8.95;;;;;;;12.49;100.00;101843.16;5261924;28;20454;-65
2023/05/28 00:38:04;;;;;;;16.02;9.55;;;;;;;12.45;100.00;101848.84;5269330;28;20044;-64
2023/05/28 00:40:36;;;;;;;15.77;9.68;;;;;;;12.40;100.00;101849.13;5270040;28;20051;-65
2023/05/28 00:43:08;;;;;;;18.02;9.68;;;;;;;12.41;100.00;101858.03;5257853;28;20043;-64
2023/05/28 00:45:39;;;;;;;19.20;9.23;;;;;;;12.32;100.00;101856.84;5263509;28;20028;-64
2023/05/28 00:48:11;;;;;;;19.63;9.93;;;;;;;12.19;100.00;101863.97;5261043;28;20075;-64
2023/05/28 00:50:43;;;;;;;16.00;9.82;;;;;;;12.11;100.00;101860.00;5261156;28;20032;-64
2023/05/28 00:53:15;;;;;;;19.52;9.38;;;;;;;12.08;100.00;101857.53;5263044;28;20032;-64
2023/05/28 00:55:48;;;;;;;19.48;9.00;;;;;;;12.03;100.00;101856.13;5266754;28;20063;-64
2023/05/28 00:58:20;;;;;;;14.95;10.02;;;;;;;11.96;100.00;101856.50;5267451;28;20323;-64
2023/05/28 01:00:51;;;;;;;17.50;8.88;;;;;;;11.94;100.00;101857.56;5263833;28;20028;-64
2023/05/28 01:03:23;;;;;;;13.85;9.45;;;;;;;11.87;100.00;101850.88;5269966;28;20032;-64
2023/05/28 01:05:55;;;;;;;18.13;9.73;;;;;;;11.87;100.00;101850.88;5264613;28;20487;-64
2023/05/28 01:08:27;;;;;;;14.60;9.57;;;;;;;11.84;100.00;101848.44;5272430;28;20059;-64
2023/05/28 01:11:00;;;;;;;20.58;10.25;;;;;;;11.86;100.00;101852.69;5273159;28;20033;-64
2023/05/28 01:13:33;;;;;;;20.45;10.18;;;;;;;12.01;100.00;101850.03;5271842;28;20035;-64
2023/05/28 01:16:04;;;;;;;19.02;10.65;;;;;;;11.98;100.00;101856.41;5271853;28;20020;-64
2023/05/28 01:18:44;;;;;;;16.63;9.77;;;;;;;11.91;100.00;101858.66;5266012;28;20081;-64
2023/05/28 01:21:16;;;;;;;15.05;10.25;;;;;;;11.84;100.00;101853.78;5262392;28;20028;-64
2023/05/28 01:23:48;;;;;;;20.85;10.35;;;;;;;11.87;100.00;101850.88;5264638;28;21157;-64
2023/05/28 01:26:20;;;;;;;19.20;10.48;;;;;;;11.93;100.00;101848.72;5260340;28;20039;-64
2023/05/28 01:28:51;;;;;;;17.85;10.35;;;;;;;11.86;100.00;101849.19;5258872;28;20024;-64
2023/05/28 01:31:23;;;;;;;18.27;10.60;;;;;;;11.83;100.00;101855.59;5261203;28;20020;-64
2023/05/28 01:33:54;;;;;;;17.15;10.15;;;;;;;11.81;100.00;101862.84;5260612;28;20112;-64
2023/05/28 01:36:33;;;;;;;16.75;11.27;;;;;;;11.82;100.00;101850.34;5259022;28;20379;-64
2023/05/28 01:39:06;;;;;;;17.75;10.40;;;;;;;11.81;100.00;101848.63;5262352;28;20033;-65
2023/05/28 01:41:39;;;;;;;21.95;10.60;;;;;;;11.76;100.00;101860.47;5260906;28;20447;-64
2023/05/28 01:44:12;;;;;;;19.50;10.82;;;;;;;11.80;100.00;101847.75;5263132;28;20155;-64
2023/05/28 01:46:46;;;;;;;19.30;10.15;;;;;;;11.78;100.00;101855.03;5264769;28;20483;-64
2023/05/28 01:49:17;;;;;;;19.65;10.57;;;;;;;11.81;100.00;101856.63;5258490;28;20036;-64
2023/05/28 01:51:51;;;;;;;16.58;9.13;;;;;;;11.82;100.00;101848.53;5262992;28;20029;-64
2023/05/28 01:54:22;;;;;;;19.13;10.73;;;;;;;11.77;100.00;101859.53;5263061;28;20109;-64
2023/05/28 01:56:54;;;;;;;18.48;10.68;;;;;;;11.85;100.00;101856.34;5267176;28;20479;-64
2023/05/28 01:59:25;;;;;;;19.85;10.57;;;;;;;11.82;100.00;101858.38;5264657;28;20120;-64
2023/05/28 02:01:57;;;;;;;22.95;11.10;;;;;;;11.89;100.00;101849.88;5257012;28;20068;-64
2023/05/28 02:04:28;;;;;;;18.17;10.60;;;;;;;11.84;100.00;101846.59;5257923;28;20044;-64
2023/05/28 02:07:00;;;;;;;16.98;9.90;;;;;;;11.78;100.00;101837.16;5266886;28;20032;-64
2023/05/28 02:09:31;;;;;;;22.60;10.55;;;;;;;11.78;100.00;101842.50;5268585;28;20048;-64
2023/05/28 02:12:03;;;;;;;21.33;10.15;;;;;;;11.78;100.00;101847.00;5268191;28;20038;-64
2023/05/28 02:14:34;;;;;;;20.95;10.75;;;;;;;11.86;100.00;101843.84;5268895;28;20437;-64
2023/05/28 02:17:06;;;;;;;19.98;10.45;;;;;;;11.73;100.00;101839.28;5270587;28;20082;-64
2023/05/28 02:19:37;;;;;;;19.00;10.82;;;;;;;11.72;100.00;101837.56;5269425;28;20433;-64
2023/05/28 02:22:12;;;;;;;22.25;10.77;;;;;;;11.73;100.00;101833.06;5271301;28;20037;-65
2023/05/28 02:24:45;;;;;;;17.90;11.40;;;;;;;11.64;100.00;101828.31;5266936;28;20024;-64
2023/05/28 02:27:18;;;;;;;18.87;10.23;;;;;;;11.62;100.00;101824.91;5267962;28;20036;-64
2023/05/28 02:29:49;;;;;;;19.08;10.65;;;;;;;11.69;100.00;101827.06;5266956;28;20291;-64
2023/05/28 02:32:21;;;;;;;18.05;9.95;;;;;;;11.59;100.00;101831.31;5270884;28;20020;-65
2023/05/28 02:34:54;;;;;;;21.65;11.00;;;;;;;11.61;100.00;101821.38;5269104;28;20026;-64
2023/05/28 02:37:26;;;;;;;18.58;10.15;;;;;;;11.56;100.00;101819.00;5269735;28;20037;-64
2023/05/28 02:39:57;;;;;;;20.27;10.75;;;;;;;11.61;100.00;101828.53;5266417;28;20066;-64
2023/05/28 02:42:29;;;;;;;17.65;10.50;;;;;;;11.61;100.00;101826.72;5269803;28;20652;-64
2023/05/28 02:45:00;;;;;;;19.85;9.93;;;;;;;11.54;100.00;101826.28;5269882;28;20158;-64
2023/05/28 02:47:32;;;;;;;20.20;11.25;;;;;;;11.56;100.00;101835.06;5267161;28;20405;-64
2023/05/28 02:50:04;;;;;;;19.77;10.38;;;;;;;11.50;100.00;101834.56;5259140;28;20290;-64
2023/05/28 02:52:35;;;;;;;20.92;10.30;;;;;;;11.53;100.00;101834.38;5259095;28;20040;-64
2023/05/28 02:55:07;;;;;;;18.63;10.32;;;;;;;11.62;100.00;101836.47;5257264;28;22634;-64
2023/05/28 02:57:39;;;;;;;17.77;10.07;;;;;;;11.48;100.00;101825.81;5258583;28;20459;-64
2023/05/28 03:00:12;;;;;;;16.63;9.63;;;;;;;11.53;100.00;101829.88;5260565;28;20135;-64
2023/05/28 03:02:43;;;;;;;16.52;9.65;;;;;;;11.49;100.00;101836.41;5260562;28;20082;-65
2023/05/28 03:05:15;;;;;;;16.58;9.20;;;;;;;11.45;100.00;101837.56;5262363;28;20520;-64
2023/05/28 03:07:46;;;;;;;17.67;9.27;;;;;;;11.42;100.00;101839.56;5263081;28;20494;-64
2023/05/28 03:10:18;;;;;;;18.02;9.13;;;;;;;11.49;100.00;101840.88;5258976;28;20024;-64
2023/05/28 03:12:49;;;;;;;16.75;9.43;;;;;;;11.40;100.00;101834.31;5259760;28;20029;-64
2023/05/28 03:15:20;;;;;;;16.63;9.02;;;;;;;11.44;100.00;101843.84;5258691;28;20854;-64
2023/05/28 03:17:53;;;;;;;17.70;8.98;;;;;;;11.36;100.00;101833.66;5260941;28;20020;-64
2023/05/28 03:20:25;;;;;;;18.25;9.52;;;;;;;11.33;100.00;101832.97;5260467;28;20028;-64
2023/05/28 03:22:57;;;;;;;15.90;8.93;;;;;;;11.33;100.00;101838.31;5262210;28;20128;-64
2023/05/28 03:25:29;;;;;;;23.65;10.35;;;;;;;11.32;100.00;101834.81;5260846;28;20028;-64
2023/05/28 03:28:00;;;;;;;16.27;8.70;;;;;;;11.32;100.00;101833.94;5259552;28;20039;-64
2023/05/28 03:30:32;;;;;;;15.25;8.98;;;;;;;11.34;100.00;101827.53;5261117;28;20032;-64
2023/05/28 03:33:03;;;;;;;14.25;8.43;;;;;;;11.30;100.00;101828.69;5259529;28;20453;-64
2023/05/28 03:35:35;;;;;;;18.23;8.98;;;;;;;11.27;100.00;101828.88;5262477;28;20521;-64
2023/05/28 03:38:06;;;;;;;16.92;9.55;;;;;;;11.26;100.00;101837.03;5262967;28;20537;-64
2023/05/28 03:40:37;;;;;;;19.83;9.63;;;;;;;11.25;100.00;101832.63;5263010;28;20025;-64
2023/05/28 03:43:09;;;;;;;17.75;9.20;;;;;;;11.22;100.00;101832.78;5259005;28;20410;-64
2023/05/28 03:45:40;;;;;;;15.70;9.50;;;;;;;11.21;100.00;101833.78;5261563;28;20028;-64
2023/05/28 03:48:11;;;;;;;17.20;9.15;;;;;;;11.20;100.00;101843.59;5265719;28;20290;-64
2023/05/28 03:50:43;;;;;;;17.13;9.15;;;;;;;11.17;100.00;101838.44;5261947;28;20024;-64
2023/05/28 03:53:14;;;;;;;16.00;9.02;;;;;;;11.22;100.00;101847.03;5262242;28;20075;-64
2023/05/28 03:55:46;;;;;;;17.17;9.52;;;;;;;11.17;100.00;101847.31;5262018;28;20033;-64
2023/05/28 03:58:18;;;;;;;19.00;9.65;;;;;;;11.18;100.00;101850.88;5261629;28;20383;-64
2023/05/28 04:00:49;;;;;;;20.02;9.30;;;;;;;11.28;100.00;101843.97;5259651;28;20035;-64
2023/05/28 04:03:20;;;;;;;17.73;8.95;;;;;;;11.16;100.00;101848.28;5264495;28;20032;-64
2023/05/28 04:05:52;;;;;;;19.63;8.88;;;;;;;11.19;100.00;101848.06;5264635;28;20449;-64
2023/05/28 04:08:24;;;;;;;19.67;9.85;;;;;;;11.17;100.00;101849.97;5269696;28;20024;-64
2023/05/28 04:10:55;;;;;;;16.80;9.18;;;;;;;11.23;100.00;101856.75;5263722;28;20025;-64
2023/05/28 04:13:26;;;;;;;17.40;9.32;;;;;;;11.17;100.00;101849.97;5268305;28;20107;-64
2023/05/28 04:15:58;;;;;;;19.00;9.75;;;;;;;11.26;100.00;101848.56;5264122;28;20086;-66
2023/05/28 04:18:29;;;;;;;18.63;9.90;;;;;;;11.27;100.00;101852.06;5266435;28;20023;-64
2023/05/28 04:21:01;;;;;;;20.88;9.77;;;;;;;11.19;100.00;101856.09;5268547;28;20032;-64
2023/05/28 04:23:32;;;;;;;19.95;10.32;;;;;;;11.19;100.00;101866.78;5263544;28;20029;-64
2023/05/28 04:26:07;;;;;;;20.35;9.10;;;;;;;11.18;100.00;101859.72;5266316;28;20542;-64
2023/05/28 04:28:39;;;;;;;16.65;8.75;;;;;;;11.28;100.00;101864.50;5268636;28;20082;-64
2023/05/28 04:31:10;;;;;;;16.25;8.75;;;;;;;11.26;100.00;101861.91;5267667;28;20032;-64
2023/05/28 04:33:46;;;;;;;15.57;9.02;;;;;;;11.26;100.00;101855.72;5268521;28;21376;-65
2023/05/28 04:36:17;;;;;;;21.73;10.00;;;;;;;11.39;100.00;101867.34;5262725;28;20466;-64
2023/05/28 04:38:49;;;;;;;18.00;8.65;;;;;;;11.47;100.00;101870.38;5259064;28;20089;-64
2023/05/28 04:41:20;;;;;;;19.83;9.30;;;;;;;11.40;100.00;101873.53;5259671;28;20446;-64
2023/05/28 04:43:51;;;;;;;18.75;10.18;;;;;;;11.38;100.00;101870.97;5264669;28;20105;-64
2023/05/28 04:46:25;;;;;;;20.05;9.43;;;;;;;11.40;100.00;101876.22;5261424;28;20390;-64
2023/05/28 04:48:57;;;;;;;17.83;8.93;;;;;;;11.43;100.00;101874.22;5258872;28;20052;-64
2023/05/28 04:51:28;;;;;;;17.05;9.32;;;;;;;11.43;100.00;101876.88;5256829;28;20122;-64
2023/05/28 04:54:00;;;;;;;17.88;9.05;;;;;;;11.43;100.00;101874.22;5258980;28;20025;-64
2023/05/28 04:56:31;;;;;;;20.10;9.82;;;;;;;11.45;100.00;101874.09;5263841;28;20043;-64
2023/05/28 04:59:04;;;;;;;18.25;9.60;;;;;;;11.46;100.00;101875.81;5259171;28;20020;-64
2023/05/28 05:01:38;;;;;;;19.27;9.60;;;;;;;11.55;100.00;101872.56;5259682;28;20465;-64
2023/05/28 05:04:10;;;;;;;20.05;9.70;;;;;;;11.50;100.00;101869.31;5258755;28;20121;-64
2023/05/28 05:06:41;;;;;;;18.05;9.93;;;;;;;11.52;100.00;101878.94;5263278;28;20119;-64
2023/05/28 05:09:12;;;;;;;19.95;10.45;;;;;;;11.55;100.00;101881.44;5257934;28;20039;-64
2023/05/28 05:11:44;;;;;;;18.63;9.57;;;;;;;11.57;100.00;101876.84;5266106;28;20107;-64
2023/05/28 05:14:15;;;;;;;18.73;9.10;;;;;;;11.67;100.00;101885.13;5268349;28;20028;-64
2023/05/28 05:16:47;;;;;;;19.83;10.93;;;;;;;11.66;100.00;101887.88;5265517;28;20376;-64
2023/05/28 05:19:18;;;;;;;23.85;10.18;;;;;;;11.71;100.00;101891.97;5265727;28;20031;-64
2023/05/28 05:21:50;;;;;;;19.50;9.52;;;;;;;11.73;100.00;101886.53;5259777;28;20021;-64
2023/05/28 05:24:21;;;;;;;19.35;9.77;;;;;;;11.75;100.00;101887.31;5264141;28;20051;-64
2023/05/28 05:26:53;;;;;;;23.42;10.38;;;;;;;11.80;100.00;101887.03;5259810;28;20789;-64
2023/05/28 05:29:24;;;;;;;18.35;9.75;;;;;;;11.82;100.00;101883.28;5272940;28;20158;-64
2023/05/28 05:31:56;;;;;;;17.88;9.35;;;;;;;11.89;100.00;101889.06;5268741;28;20055;-64
2023/05/28 05:34:28;;;;;;;19.00;10.07;;;;;;;11.93;100.00;101883.47;5273066;28;20040;-64
2023/05/28 05:36:59;;;;;;;18.10;10.00;;;;;;;11.97;100.00;101886.81;5269429;28;20028;-64
2023/05/28 05:39:31;;;;;;;18.17;10.48;;;;;;;11.98;100.00;101882.31;5268729;28;20023;-64
2023/05/28 05:42:02;;;;;;;19.50;10.40;;;;;;;12.07;100.00;101895.94;5269582;28;20115;-64
2023/05/28 05:44:34;;;;;;;20.63;9.82;;;;;;;12.15;100.00;101903.44;5270017;28;20040;-64
2023/05/28 05:47:05;;;;;;;20.38;10.65;;;;;;;12.22;100.00;101896.75;5266912;28;20088;-64
2023/05/28 05:49:37;;;;;;;20.50;10.85;;;;;;;12.25;100.00;101899.19;5270217;28;20032;-64
2023/05/28 05:52:08;;;;;;;19.17;10.57;;;;;;;12.34;100.00;101900.41;5266047;28;20535;-64
2023/05/28 05:54:39;;;;;;;23.00;10.13;;;;;;;12.42;100.00;101905.25;5270024;28;20530;-64
2023/05/28 05:57:11;;;;;;;16.80;9.95;;;;;;;12.49;100.00;101906.56;5268135;28;20491;-64
2023/05/28 05:59:42;;;;;;;19.95;10.70;;;;;;;12.57;100.00;101901.53;5273537;28;20159;-64
2023/05/28 06:02:13;;;;;;;19.00;9.77;;;;;;;12.65;100.00;101903.69;5268133;28;20028;-64
2023/05/28 06:04:45;;;;;;;20.27;9.98;;;;;;;12.74;100.00;101905.75;5268900;28;20040;-64
2023/05/28 06:07:16;;;;;;;17.85;10.52;;;;;;;12.81;100.00;101906.16;5269292;28;20364;-64
2023/05/28 06:09:49;;;;;;;20.50;10.48;;;;;;;12.90;100.00;101902.84;5272100;28;20039;-64
2023/05/28 06:12:21;;;;;;;18.58;9.90;;;;;;;13.06;100.00;101900.81;5269448;28;20064;-64
2023/05/28 06:14:52;;;;;;;16.42;9.73;;;;;;;13.14;100.00;101895.78;5273097;28;20032;-64
2023/05/28 06:17:23;;;;;;;17.33;9.43;;;;;;;13.28;100.00;101910.03;5268235;28;20856;-64
2023/05/28 06:19:55;;;;;;;17.92;9.43;;;;;;;13.44;100.00;101897.28;5268744;28;20043;-64
2023/05/28 06:22:27;;;;;;;19.98;9.60;;;;;;;13.52;100.00;101894.91;5268999;28;20032;-64
2023/05/28 06:25:00;;;;;;;17.02;9.00;;;;;;;13.64;100.00;101897.66;5272409;28;20024;-64
2023/05/28 06:27:32;;;;;;;19.50;9.75;;;;;;;13.74;100.00;101890.66;5271229;28;20028;-64
2023/05/28 06:30:04;;;;;;;18.02;9.55;;;;;;;13.84;100.00;101891.69;5267432;28;20020;-64
2023/05/28 06:32:36;;;;;;;19.92;9.20;;;;;;;14.00;100.00;101894.09;5275950;28;20029;-64
2023/05/28 06:35:08;;;;;;;15.32;8.65;;;;;;;14.09;100.00;101889.84;5266674;28;20035;-64
2023/05/28 06:37:39;;;;;;;22.08;9.10;;;;;;;14.28;100.00;101879.44;5272318;28;20032;-64
2023/05/28 06:40:11;;;;;;;16.02;8.90;;;;;;;14.35;100.00;101881.69;5276515;28;20467;-65
2023/05/28 06:42:42;;;;;;;15.93;8.90;;;;;;;14.57;100.00;101897.03;5286385;28;20444;-64
2023/05/28 06:45:14;;;;;;;18.00;8.77;;;;;;;14.68;100.00;101892.53;5278101;28;20062;-64
2023/05/28 06:47:48;;;;;;;16.15;8.63;;;;;;;14.82;100.00;101882.56;5275638;28;20143;-65
2023/05/28 06:50:20;;;;;;;14.98;8.13;;;;;;;15.01;100.00;101885.50;5266588;28;20036;-64
2023/05/28 06:52:51;;;;;;;16.88;8.30;;;;;;;15.06;100.00;101891.38;5273279;28;20478;-64
2023/05/28 06:55:22;;;;;;;19.38;9.18;;;;;;;15.21;100.00;101888.47;5263798;28;20043;-64
2023/05/28 06:57:54;;;;;;;16.50;8.60;;;;;;;15.41;100.00;101882.34;5272477;28;20098;-64
2023/05/28 07:00:25;;;;;;;19.00;9.73;;;;;;;15.55;100.00;101883.06;5264636;28;20411;-64
2023/05/28 07:02:57;;;;;;;12.70;8.40;;;;;;;15.66;100.00;101886.59;5266080;28;20025;-64
2023/05/28 07:05:28;;;;;;;16.50;8.63;;;;;;;15.78;100.00;101894.66;5271689;28;20052;-64
2023/05/28 07:08:00;;;;;;;17.42;8.48;;;;;;;15.91;100.00;101892.69;5273224;28;20414;-64
2023/05/28 07:10:31;;;;;;;16.92;9.00;;;;;;;16.11;100.00;101888.34;5271696;28;20033;-64
2023/05/28 07:13:03;;;;;;;16.45;8.20;;;;;;;16.26;100.00;101891.56;5268971;28;20117;-65
2023/05/28 07:15:35;;;;;;;19.65;9.15;;;;;;;16.45;100.00;101896.25;5270756;28;20032;-65
2023/05/28 07:18:06;;;;;;;13.95;7.22;;;;;;;16.66;100.00;101888.19;5267075;28;20025;-65
2023/05/28 07:20:38;;;;;;;17.42;7.43;;;;;;;16.75;100.00;101892.81;5269676;28;20047;-64
2023/05/28 07:23:11;;;;;;;13.80;6.82;;;;;;;16.97;100.00;101894.53;5279386;28;20043;-64
2023/05/28 07:25:42;;;;;;;12.20;7.20;;;;;;;17.09;100.00;101894.47;5269852;28;20033;-64
2023/05/28 07:28:14;;;;;;;16.77;7.50;;;;;;;17.36;100.00;101897.41;5265478;28;20035;-64
2023/05/28 07:30:45;;;;;;;15.82;7.35;;;;;;;17.44;100.00;101902.13;5260047;28;20027;-65
2023/05/28 07:33:16;;;;;;;14.05;7.25;;;;;;;17.54;100.00;101896.75;5265819;28;20107;-64
2023/05/28 07:35:48;;;;;;;15.18;7.57;;;;;;;17.54;100.00;101902.16;5268391;28;20093;-65
2023/05/28 07:38:19;;;;;;;12.10;6.47;;;;;;;17.66;100.00;101901.06;5267497;28;20024;-64
2023/05/28 07:40:51;;;;;;;14.25;6.63;;;;;;;17.70;100.00;101902.50;5260468;28;20028;-65
2023/05/28 07:43:22;;;;;;;14.63;6.65;;;;;;;17.75;100.00;101900.22;5269346;28;20024;-65
2023/05/28 07:45:53;;;;;;;15.68;7.40;;;;;;;17.87;100.00;101905.53;5268393;28;20390;-64
2023/05/28 07:48:25;;;;;;;12.52;6.80;;;;;;;17.96;100.00;101893.91;5271475;28;20040;-65
2023/05/28 07:50:57;;;;;;;15.95;7.05;;;;;;;18.15;100.00;101896.59;5267491;28;20490;-64
2023/05/28 07:53:28;;;;;;;13.63;6.63;;;;;;;18.16;100.00;101890.22;5264219;28;20043;-65
2023/05/28 07:56:00;;;;;;;13.73;6.72;;;;;;;18.26;100.00;101894.78;5267985;28;20024;-64
2023/05/28 07:58:31;;;;;;;13.55;6.18;;;;;;;18.36;100.00;101906.44;5266892;28;20052;-65
2023/05/28 08:01:08;;;;;;;13.93;7.03;;;;;;;18.37;100.00;101908.13;5266876;28;21824;-65
2023/05/28 08:03:40;;;;;;;16.27;7.47;;;;;;;18.39;100.00;101904.31;5268847;28;20131;-65
2023/05/28 08:06:11;;;;;;;14.75;7.35;;;;;;;18.47;100.00;101909.00;5269748;28;20073;-65
2023/05/28 08:08:43;;;;;;;16.05;8.02;;;;;;;18.45;100.00;101899.31;5281578;28;20035;-65
2023/05/28 08:11:14;;;;;;;21.95;8.82;;;;;;;18.54;100.00;101903.84;5262873;28;20028;-65
2023/05/28 08:13:46;;;;;;;16.50;8.27;;;;;;;18.53;100.00;101897.59;5268658;28;20031;-65
2023/05/28 08:16:17;;;;;;;11.98;7.82;;;;;;;18.53;100.00;101900.31;5263261;28;20090;-65
2023/05/28 08:18:49;;;;;;;16.10;8.15;;;;;;;18.65;100.00;101897.44;5269104;28;20036;-65
2023/05/28 08:21:20;;;;;;;16.23;9.00;;;;;;;18.69;100.00;101894.31;5272637;28;20481;-65
2023/05/28 08:23:51;;;;;;;15.45;8.27;;;;;;;18.71;100.00;101900.41;5261589;28;20060;-64
2023/05/28 08:26:23;;;;;;;16.55;8.32;;;;;;;18.85;100.00;101901.00;5273346;28;20518;-65
2023/05/28 08:28:55;;;;;;;15.63;8.38;;;;;;;18.80;100.00;101901.44;5273546;28;20374;-65
2023/05/28 08:31:26;;;;;;;16.98;8.98;;;;;;;18.84;100.00;101900.16;5276747;28;20157;-65
2023/05/28 08:33:58;;;;;;;14.48;8.18;;;;;;;18.86;100.00;101900.00;5265216;28;20029;-64
2023/05/28 08:36:29;;;;;;;17.65;8.55;;;;;;;18.90;100.00;101901.41;5273619;28;20028;-65
2023/05/28 08:39:01;;;;;;;14.57;7.93;;;;;;;19.05;100.00;101899.09;5260335;28;20512;-64
2023/05/28 08:41:32;;;;;;;15.10;8.13;;;;;;;18.97;100.00;101892.56;5266156;28;20060;-65
2023/05/28 08:44:03;;;;;;;15.57;8.00;;;;;;;19.18;100.00;101886.94;5260107;28;20111;-64
2023/05/28 08:46:36;;;;;;;15.80;8.45;;;;;;;19.07;100.00;101894.41;5270202;28;20558;-64
2023/05/28 08:49:10;;;;;;;14.27;8.23;;;;;;;19.14;100.00;101885.53;5271658;28;20047;-64
2023/05/28 08:51:42;;;;;;;;;;;;;;;19.29;100.00;101883.22;5273257;28;20028;-65
2023/05/28 08:54:14;;;;;;;17.02;8.10;;;;;;;19.39;100.00;101889.41;5279008;28;19938;-65
2023/05/28 08:56:46;;;;;;;15.27;7.95;;;;;;;19.48;100.00;101878.69;5276434;28;20036;-64
2023/05/28 08:59:17;;;;;;;15.70;7.95;;;;;;;19.60;100.00;101877.50;5279359;28;20059;-64
2023/05/28 09:01:50;;;;;;;14.63;7.97;;;;;;;19.63;100.00;101879.03;5273624;28;20027;-64
2023/05/28 09:04:21;;;;;;;14.40;7.13;;;;;;;19.77;100.00;101863.16;5268385;28;20040;-64
2023/05/28 09:06:53;;;;;;;12.93;6.45;;;;;;;19.96;100.00;101874.84;5260786;28;20016;-64
2023/05/28 09:09:26;;;;;;;13.10;5.93;;;;;;;20.08;100.00;101865.50;5276130;28;20032;-65
2023/05/28 09:12:07;;;;;;;12.13;5.60;;;;;;;20.22;100.00;101863.25;5270387;28;20037;-65
2023/05/28 09:14:41;;;;;;;12.07;5.10;;;;;;;20.24;100.00;101867.50;5266241;28;20458;-65
2023/05/28 09:17:13;;;;;;;9.85;5.07;;;;;;;20.33;100.00;101876.56;5267260;28;20025;-64
2023/05/28 09:19:54;;;;;;;8.63;4.30;;;;;;;20.47;100.00;101869.72;5280763;28;20027;-64
2023/05/28 09:22:27;;;;;;;10.85;4.88;;;;;;;20.53;100.00;101871.81;5275894;28;20028;-64
2023/05/28 09:25:00;;;;;;;12.35;4.78;;;;;;;20.61;100.00;101868.31;5269259;28;20487;-64
2023/05/28 09:27:32;;;;;;;8.93;4.40;;;;;;;20.78;100.00;101861.16;5267419;28;20024;-64
2023/05/28 09:30:07;;;;;;;11.35;4.47;;;;;;;20.76;100.00;101864.03;5276771;28;20047;-64
2023/05/28 09:32:38;;;;;;;11.95;4.75;;;;;;;20.86;100.00;101866.63;5265430;28;20437;-64
2023/05/28 09:35:10;;;;;;;10.63;4.72;;;;;;;20.95;100.00;101863.81;5266566;28;20037;-65
2023/05/28 09:37:42;;;;;;;10.68;4.85;;;;;;;21.12;100.00;101867.47;5264810;28;20021;-64
2023/05/28 09:40:13;;;;;;;10.30;4.50;;;;;;;21.12;100.00;101870.16;5276892;28;20033;-65
2023/05/28 09:42:44;;;;;;;7.43;4.00;;;;;;;21.09;100.00;101866.94;5274537;28;20045;-65
2023/05/28 09:45:25;;;;;;;9.88;4.32;;;;;;;21.17;100.00;101863.41;5267893;28;20025;-64
2023/05/28 09:47:57;;;;;;;10.20;4.68;;;;;;;21.16;100.00;101862.56;5265625;28;20044;-65
2023/05/28 09:50:29;;;;;;;9.48;4.20;;;;;;;21.20;99.86;101861.22;5265466;28;20462;-65
2023/05/28 09:53:03;;;;;;;10.15;4.32;;;;;;;21.21;100.00;101857.50;5267642;28;20028;-65
2023/05/28 09:55:36;;;;;;;7.78;3.60;;;;;;;21.36;100.00;101852.28;5266670;28;20361;-65
2023/05/28 09:58:10;;;;;;;9.02;4.35;;;;;;;21.43;100.00;101855.22;5278570;28;20063;-65
2023/05/28 10:00:47;;;;;;;8.27;3.95;;;;;;;21.47;100.00;101852.03;5263335;28;20029;-64
2023/05/28 10:03:23;;;;;;;9.55;3.75;;;;;;;21.50;99.94;101853.56;5267089;28;20025;-65
2023/05/28 10:05:59;;;;;;;9.15;3.72;;;;;;;21.53;98.49;101850.50;5276075;28;20048;-64
2023/05/28 10:08:37;;;;;;;7.57;4.07;;;;;;;21.53;92.98;101862.25;5267471;28;20111;-64
2023/05/28 10:11:13;;;;;;;8.60;3.72;;;;;;;21.65;95.20;101864.63;5270256;28;20036;-65
2023/05/28 10:13:45;;;;;;;9.45;3.85;;;;;;;21.65;95.63;101859.19;5273650;28;20051;-64
2023/05/28 10:16:18;;;;;;;9.68;3.92;;;;;;;21.66;97.13;101859.03;5273191;28;20036;-64
2023/05/28 10:18:51;;;;;;;9.95;4.68;;;;;;;21.84;87.58;101855.34;5259478;28;20048;-65
2023/05/28 10:21:24;;;;;;;10.30;3.92;;;;;;;21.86;85.68;101862.31;5273966;28;20477;-64
2023/05/28 10:23:56;;;;;;;9.85;3.88;;;;;;;21.97;87.97;101866.56;5276223;28;20025;-65
2023/05/28 10:26:28;;;;;;;9.85;3.88;;;;;;;22.01;91.02;101864.38;5268278;28;20028;-65
2023/05/28 10:29:00;;;;;;;9.05;3.80;;;;;;;22.07;86.96;101855.53;5270848;28;20032;-64
2023/05/28 10:31:31;;;;;;;8.95;4.10;;;;;;;21.97;91.40;101858.41;5271094;28;20033;-65
2023/05/28 10:34:14;;;;;;;9.90;4.20;;;;;;;22.18;89.46;101859.81;5277072;28;20055;-65
2023/05/28 10:36:50;;;;;;;9.13;3.88;;;;;;;22.17;87.28;101863.53;5267223;28;20031;-64
2023/05/28 10:39:21;;;;;;;10.07;4.10;;;;;;;22.23;85.13;101855.56;5269816;28;20075;-65
2023/05/28 10:41:56;;;;;;;9.15;4.20;;;;;;;22.28;90.08;101863.22;5273389;28;20024;-65
2023/05/28 10:45:09;;;;;;;10.25;4.50;;;;;;;22.38;90.23;101860.34;5270620;28;20032;-65
2023/05/28 10:47:51;;;;;;;9.50;4.05;;;;;;;22.46;91.85;101865.78;5267052;28;20433;-65
2023/05/28 10:50:23;;;;;;;8.13;3.85;;;;;;;22.49;91.66;101855.44;5270503;28;20383;-65
2023/05/28 10:53:07;;;;;;;7.82;3.92;;;;;;;22.48;92.50;101855.59;5271399;28;20138;-64
2023/05/28 10:55:54;;;;;;;8.88;4.05;;;;;;;22.54;92.18;101862.22;5270148;28;20033;-64
2023/05/28 10:58:34;;;;;;;9.60;4.07;;;;;;;22.55;85.67;101863.91;5275576;28;20107;-65
2023/05/28 11:01:09;;;;;;;8.48;3.75;;;;;;;22.49;83.36;101866.31;5276208;28;20032;-64
2023/05/28 11:03:45;;;;;;;8.00;3.85;;;;;;;22.48;84.09;101866.47;5270810;28;20028;-64
2023/05/28 11:06:17;;;;;;;8.68;3.72;;;;;;;22.49;87.10;101860.00;5273584;28;20041;-65
2023/05/28 11:08:50;;;;;;;11.13;4.20;;;;;;;22.45;86.27;101858.66;5265252;28;20029;-65
2023/05/28 11:11:22;;;;;;;8.45;4.00;;;;;;;22.42;83.27;101859.84;5275259;28;20423;-65
2023/05/28 11:13:54;;;;;;;7.60;3.90;;;;;;;22.45;86.68;101856.75;5265994;28;20029;-64
2023/05/28 11:16:25;;;;;;;8.68;3.75;;;;;;;22.45;85.71;101854.03;5269937;28;20033;-65
2023/05/28 11:19:01;;;;;;;7.80;3.78;;;;;;;22.40;85.41;101855.56;5270342;28;20028;-65
2023/05/28 11:21:33;;;;;;;8.30;3.75;;;;;;;22.41;83.95;101858.13;5269133;28;20036;-65
2023/05/28 11:24:05;;;;;;;11.25;3.42;;;;;;;22.48;88.25;101859.16;5270249;28;20028;-65
2023/05/28 11:26:36;;;;;;;9.57;3.97;;;;;;;22.43;83.29;101861.53;5257454;28;20025;-65
2023/05/28 11:29:09;;;;;;;8.77;4.28;;;;;;;22.35;81.35;101866.97;5268882;28;20429;-65
2023/05/28 11:31:42;;;;;;;8.60;3.88;;;;;;;22.31;83.28;101863.75;5275274;28;20439;-65